Time;durP1;ratioP1;P1;durP2;ratioP2;P2;SDS_P1;SDS_P2;PMS_P1;PMS_P2;Temp;Humidity;BMP_temperature;BMP_pressure;BME280_temperature;BME280_humidity;BME280_pressure;Samples;Min_cycle;Max_cycle;Signal;HPM_P1;HPM_P2
2024/02/28 00:00:10;;;;;;;19.55;4.80;;;;;;;4.45;100.00;101233.50;5039176;28;20064;-73
2024/02/28 00:02:36;;;;;;;18.67;4.75;;;;;;;4.48;100.00;101233.25;5039319;28;20481;-73
2024/02/28 00:05:02;;;;;;;14.82;4.63;;;;;;;4.51;100.00;101227.69;5071990;28;20021;-73
2024/02/28 00:07:28;;;;;;;17.02;4.00;;;;;;;4.50;100.00;101220.63;5072181;28;20020;-73
2024/02/28 00:09:57;;;;;;;20.88;6.40;;;;;;;4.48;100.00;101211.97;5038812;28;20103;-73
2024/02/28 00:12:26;;;;;;;20.00;5.07;;;;;;;4.48;100.00;101215.47;5039540;28;20039;-73
2024/02/28 00:14:51;;;;;;;19.77;5.05;;;;;;;4.50;100.00;101204.66;5055641;28;20032;-73
2024/02/28 00:17:17;;;;;;;18.10;4.00;;;;;;;4.49;100.00;101197.66;5039073;28;20036;-73
2024/02/28 00:19:43;;;;;;;14.05;3.70;;;;;;;4.53;100.00;101201.78;5039132;28;20040;-73
2024/02/28 00:22:09;;;;;;;15.43;4.78;;;;;;;4.55;100.00;101194.47;5054947;28;20466;-73
2024/02/28 00:24:35;;;;;;;18.63;4.43;;;;;;;4.58;100.00;101194.25;5022617;28;20032;-73
2024/02/28 00:27:00;;;;;;;15.52;4.75;;;;;;;4.59;100.00;101204.75;5038961;28;20040;-73
2024/02/28 00:29:27;;;;;;;24.85;4.90;;;;;;;4.60;100.00;101208.28;5038713;28;20060;-74
2024/02/28 00:31:53;;;;;;;17.92;4.65;;;;;;;4.62;100.00;101209.00;5071729;28;20036;-73
2024/02/28 00:34:18;;;;;;;15.68;4.25;;;;;;;4.60;100.00;101192.28;5038806;28;20040;-73
2024/02/28 00:36:44;;;;;;;22.75;5.82;;;;;;;4.60;100.00;101184.31;5055247;28;20032;-74
2024/02/28 00:39:10;;;;;;;14.65;4.47;;;;;;;4.59;100.00;101180.78;5038801;28;20036;-73
2024/02/28 00:41:37;;;;;;;23.73;5.47;;;;;;;4.61;100.00;101168.22;5038797;28;20024;-73
2024/02/28 00:44:03;;;;;;;18.13;4.22;;;;;;;4.63;100.00;101168.94;5055855;28;20524;-73
2024/02/28 00:46:29;;;;;;;20.92;4.80;;;;;;;4.65;100.00;101162.63;5042882;28;20036;-73
2024/02/28 00:48:54;;;;;;;17.48;5.20;;;;;;;4.69;100.00;101164.91;5042258;28;20370;-73
2024/02/28 00:51:20;;;;;;;15.00;3.88;;;;;;;4.74;100.00;101161.88;5058624;28;20035;-73
2024/02/28 00:53:46;;;;;;;19.45;3.53;;;;;;;4.77;100.00;101143.78;5042487;28;20024;-73
2024/02/28 00:56:11;;;;;;;15.73;3.70;;;;;;;4.81;100.00;101145.22;5042359;28;20450;-74
2024/02/28 00:58:38;;;;;;;14.43;3.75;;;;;;;4.82;100.00;101136.25;5042298;28;20374;-74
2024/02/28 01:01:04;;;;;;;14.48;3.75;;;;;;;4.83;100.00;101137.09;5042367;28;20036;-74
2024/02/28 01:03:30;;;;;;;27.65;4.55;;;;;;;4.90;100.00;101132.13;5075004;28;20111;-74
2024/02/28 01:05:56;;;;;;;9.90;3.03;;;;;;;4.92;100.00;101127.47;5042202;28;20120;-74
2024/02/28 01:08:22;;;;;;;13.50;3.53;;;;;;;4.91;100.00;101123.13;5058476;28;20137;-74
2024/02/28 01:10:47;;;;;;;16.88;4.05;;;;;;;4.88;100.00;101118.91;5058571;28;20367;-74
2024/02/28 01:13:13;;;;;;;11.88;3.08;;;;;;;4.84;100.00;101118.34;5058240;28;20050;-74
2024/02/28 01:15:42;;;;;;;13.68;3.85;;;;;;;4.81;100.00;101113.25;5042552;28;20397;-73
2024/02/28 01:18:08;;;;;;;21.98;4.07;;;;;;;4.77;100.00;101103.00;5058572;28;20028;-74
2024/02/28 01:20:34;;;;;;;10.80;3.38;;;;;;;4.76;100.00;101104.81;5074860;28;20033;-74
2024/02/28 01:22:59;;;;;;;11.80;3.22;;;;;;;4.77;100.00;101085.19;5041883;28;20078;-73
2024/02/28 01:25:25;;;;;;;16.20;4.30;;;;;;;4.81;100.00;101083.94;5041842;28;20123;-74
2024/02/28 01:27:51;;;;;;;15.40;3.53;;;;;;;4.85;100.00;101079.22;5041733;28;20044;-74
2024/02/28 01:30:16;;;;;;;18.95;3.47;;;;;;;4.90;100.00;101068.16;5041399;28;20020;-74
2024/02/28 01:32:42;;;;;;;15.73;4.45;;;;;;;4.91;100.00;101075.16;5041731;28;20044;-74
2024/02/28 01:35:09;;;;;;;25.75;4.05;;;;;;;4.98;100.00;101073.69;5058240;28;20028;-74
2024/02/28 01:37:34;;;;;;;16.63;3.38;;;;;;;5.07;100.00;101073.72;5041877;28;20032;-74
2024/02/28 01:40:00;;;;;;;14.07;3.20;;;;;;;5.16;100.00;101064.09;5041509;28;20362;-73
2024/02/28 01:42:26;;;;;;;14.32;3.58;;;;;;;5.24;100.00;101055.44;5041526;28;20031;-74
2024/02/28 01:44:51;;;;;;;19.15;4.53;;;;;;;5.29;100.00;101040.72;5058092;28;20036;-74
2024/02/28 01:47:18;;;;;;;16.50;3.92;;;;;;;5.34;100.00;101036.78;5041453;28;20508;-74
2024/02/28 01:49:44;;;;;;;11.40;3.60;;;;;;;5.38;100.00;101035.56;5041106;28;20542;-73
2024/02/28 01:52:10;;;;;;;15.38;3.92;;;;;;;5.44;100.00;101032.34;5074464;28;20032;-74
2024/02/28 01:54:35;;;;;;;13.93;2.60;;;;;;;5.46;100.00;101031.22;5041282;28;20371;-74
2024/02/28 01:57:02;;;;;;;20.80;3.63;;;;;;;5.52;100.00;101035.16;5040547;28;20035;-74
2024/02/28 01:59:29;;;;;;;18.70;3.72;;;;;;;5.55;100.00;101024.22;5057266;28;20028;-74
2024/02/28 02:01:55;;;;;;;16.38;3.95;;;;;;;5.57;100.00;101016.94;5057555;28;20328;-74
2024/02/28 02:04:21;;;;;;;16.98;3.63;;;;;;;5.58;100.00;101005.25;5057260;28;20073;-74
2024/02/28 02:06:48;;;;;;;15.65;3.92;;;;;;;5.60;100.00;100991.81;5041662;28;20032;-74
2024/02/28 02:09:13;;;;;;;22.55;3.90;;;;;;;5.55;100.00;100994.88;5024420;28;20374;-74
2024/02/28 02:11:39;;;;;;;17.38;3.53;;;;;;;5.49;100.00;100982.09;5040987;28;20030;-74
2024/02/28 02:14:05;;;;;;;22.38;4.45;;;;;;;5.45;100.00;100988.66;5057575;28;20503;-74
2024/02/28 02:16:31;;;;;;;26.27;3.47;;;;;;;5.43;100.00;100980.00;5057466;28;20028;-74
2024/02/28 02:18:57;;;;;;;15.50;4.30;;;;;;;5.43;100.00;100985.31;5057210;28;20020;-74
2024/02/28 02:21:24;;;;;;;17.48;3.22;;;;;;;5.42;100.00;100980.94;5040830;28;20051;-74
2024/02/28 02:23:50;;;;;;;13.68;3.63;;;;;;;5.39;100.00;100971.41;5074032;28;20024;-73
2024/02/28 02:26:16;;;;;;;19.70;4.22;;;;;;;5.37;100.00;100967.19;5057400;28;20036;-73
2024/02/28 02:28:42;;;;;;;15.85;4.57;;;;;;;5.37;100.00;100961.84;5057101;28;20024;-74
2024/02/28 02:31:08;;;;;;;13.82;3.65;;;;;;;5.38;100.00;100963.56;5056659;28;20025;-74
2024/02/28 02:33:34;;;;;;;17.70;3.72;;;;;;;5.35;100.00;100948.66;5040474;28;20035;-74
2024/02/28 02:35:59;;;;;;;18.02;3.47;;;;;;;5.35;100.00;100943.34;5040421;28;20124;-74
2024/02/28 02:38:25;;;;;;;29.75;8.55;;;;;;;5.33;100.00;100942.63;5056861;28;20401;-74
2024/02/28 02:40:52;;;;;;;24.50;9.45;;;;;;;5.34;100.00;100935.47;5040378;28;20119;-74
2024/02/28 02:43:17;;;;;;;36.88;13.80;;;;;;;5.32;100.00;100929.41;5056877;28;20063;-74
2024/02/28 02:45:44;;;;;;;35.75;13.63;;;;;;;5.28;100.00;100924.38;5040260;28;20039;-74
2024/02/28 02:48:10;;;;;;;35.03;13.15;;;;;;;5.21;100.00;100925.91;5040136;28;20029;-74
2024/02/28 02:50:35;;;;;;;26.02;7.70;;;;;;;5.17;100.00;100916.50;5040081;28;20028;-73
2024/02/28 02:53:03;;;;;;;15.25;4.80;;;;;;;5.05;100.00;100910.44;5073250;28;20040;-74
2024/02/28 02:55:29;;;;;;;21.38;4.97;;;;;;;4.91;100.00;100904.66;5040058;28;20504;-74
2024/02/28 02:57:55;;;;;;;7.70;3.10;;;;;;;4.78;100.00;100905.72;5039900;28;20025;-74
2024/02/28 03:00:21;;;;;;;9.32;2.33;;;;;;;4.70;100.00;100899.38;5056389;28;20025;-74
2024/02/28 03:02:46;;;;;;;14.63;2.28;;;;;;;4.59;100.00;100895.81;5039948;28;20036;-74
2024/02/28 03:05:12;;;;;;;6.38;2.05;;;;;;;4.61;100.00;100901.88;5039892;28;20032;-74
2024/02/28 03:07:38;;;;;;;11.88;2.47;;;;;;;4.58;100.00;100901.31;5056568;28;20068;-74
2024/02/28 03:10:04;;;;;;;6.57;2.40;;;;;;;4.59;100.00;100901.16;5056184;28;20115;-74
2024/02/28 03:12:30;;;;;;;8.90;2.45;;;;;;;4.57;100.00;100896.94;5056412;28;20455;-74
2024/02/28 03:14:55;;;;;;;14.25;2.50;;;;;;;4.59;100.00;100895.00;5039832;28;20035;-73
2024/02/28 03:17:21;;;;;;;11.07;2.42;;;;;;;4.61;100.00;100890.38;5039847;28;20038;-74
2024/02/28 03:19:47;;;;;;;13.85;2.80;;;;;;;4.63;100.00;100875.09;5039750;28;20082;-74
2024/02/28 03:22:12;;;;;;;8.70;2.60;;;;;;;4.62;100.00;100847.63;5056381;28;20064;-74
2024/02/28 03:24:38;;;;;;;11.10;2.78;;;;;;;4.63;100.00;100849.31;5056399;28;20024;-74
2024/02/28 03:27:04;;;;;;;15.95;2.75;;;;;;;4.66;100.00;100834.03;5039688;28;20035;-74
2024/02/28 03:29:30;;;;;;;8.32;2.15;;;;;;;4.64;100.00;100831.50;5039454;28;20035;-74
2024/02/28 03:31:55;;;;;;;8.30;2.47;;;;;;;4.67;100.00;100822.41;5072667;28;20040;-74
2024/02/28 03:34:21;;;;;;;19.80;2.45;;;;;;;4.67;100.00;100815.25;5039417;28;20043;-74
2024/02/28 03:36:47;;;;;;;9.88;2.15;;;;;;;4.65;100.00;100806.56;5056024;28;20033;-74
2024/02/28 03:39:13;;;;;;;14.98;2.15;;;;;;;4.67;100.00;100791.28;5055552;28;20036;-74
2024/02/28 03:41:38;;;;;;;17.05;2.58;;;;;;;4.70;100.00;100782.19;5039481;28;20044;-74
2024/02/28 03:44:04;;;;;;;15.85;2.53;;;;;;;4.74;100.00;100771.13;5055625;28;20032;-74
2024/02/28 03:46:30;;;;;;;3.50;1.75;;;;;;;4.80;100.00;100761.72;5040280;28;20036;-74
2024/02/28 03:48:56;;;;;;;7.38;2.03;;;;;;;4.86;100.00;100753.19;5055885;28;20375;-74
2024/02/28 03:51:22;;;;;;;7.65;2.42;;;;;;;4.88;100.00;100748.56;5039387;28;20408;-74
2024/02/28 03:53:47;;;;;;;14.45;1.98;;;;;;;4.93;100.00;100748.16;5039745;28;20037;-74
2024/02/28 03:56:13;;;;;;;6.45;1.77;;;;;;;4.95;100.00;100743.50;5039790;28;20089;-74
2024/02/28 03:58:40;;;;;;;9.00;1.50;;;;;;;4.96;100.00;100743.38;5039274;28;20419;-75
2024/02/28 04:01:05;;;;;;;7.20;2.08;;;;;;;4.97;100.00;100737.06;5039313;28;20123;-74
2024/02/28 04:03:31;;;;;;;3.90;1.45;;;;;;;5.05;100.00;100739.00;5055676;28;20120;-74
2024/02/28 04:05:58;;;;;;;8.32;1.88;;;;;;;5.15;100.00;100726.53;5039239;28;20024;-75
2024/02/28 04:08:23;;;;;;;6.22;1.77;;;;;;;5.22;100.00;100711.66;5055789;28;20020;-75
2024/02/28 04:10:51;;;;;;;5.82;1.55;;;;;;;5.28;100.00;100721.75;5039232;28;20024;-75
2024/02/28 04:13:16;;;;;;;5.40;1.52;;;;;;;5.32;100.00;100719.66;5040117;28;20048;-75
2024/02/28 04:15:42;;;;;;;3.50;1.70;;;;;;;5.40;100.00;100726.91;5039197;28;20454;-75
2024/02/28 04:18:08;;;;;;;4.53;1.77;;;;;;;5.44;100.00;100715.00;5039138;28;20455;-75
2024/02/28 04:20:33;;;;;;;6.05;1.98;;;;;;;5.46;100.00;100695.19;5042198;28;20037;-75
2024/02/28 04:22:59;;;;;;;14.98;2.63;;;;;;;5.51;100.00;100697.44;5059676;28;20039;-75
2024/02/28 04:25:24;;;;;;;6.25;1.80;;;;;;;5.54;100.00;100683.81;5043077;28;20028;-75
2024/02/28 04:27:50;;;;;;;5.88;1.02;;;;;;;5.62;100.00;100667.09;5042649;28;20021;-75
2024/02/28 04:30:16;;;;;;;6.22;1.67;;;;;;;5.68;100.00;100662.00;5058931;28;20082;-75
2024/02/28 04:32:41;;;;;;;9.35;1.50;;;;;;;5.74;100.00;100649.88;5059392;28;20024;-75
2024/02/28 04:35:07;;;;;;;1.88;1.38;;;;;;;5.81;100.00;100639.47;5042779;28;20043;-75
2024/02/28 04:37:34;;;;;;;2.15;1.48;;;;;;;5.87;100.00;100636.22;5058914;28;20042;-75
2024/02/28 04:40:00;;;;;;;1.63;1.10;;;;;;;5.96;100.00;100640.69;5059117;28;20025;-75
2024/02/28 04:42:26;;;;;;;2.80;1.48;;;;;;;6.05;100.00;100631.78;5077140;28;20085;-75
2024/02/28 04:44:52;;;;;;;2.10;1.50;;;;;;;6.10;100.00;100623.34;5059033;28;20028;-75
2024/02/28 04:47:17;;;;;;;0.68;0.65;;;;;;;6.13;100.00;100623.03;5042594;28;20469;-75
2024/02/28 04:49:43;;;;;;;2.90;1.15;;;;;;;6.14;100.00;100619.41;5058861;28;20447;-75
2024/02/28 04:52:08;;;;;;;1.55;0.88;;;;;;;6.13;100.00;100625.69;5042509;28;20028;-75
2024/02/28 04:54:34;;;;;;;3.05;0.93;;;;;;;6.14;100.00;100628.22;5058770;28;20051;-76
2024/02/28 04:57:00;;;;;;;4.32;0.90;;;;;;;6.13;100.00;100637.22;5058513;28;20032;-76
2024/02/28 04:59:26;;;;;;;3.20;1.10;;;;;;;6.16;100.00;100641.41;5058859;28;20485;-75
2024/02/28 05:01:52;;;;;;;7.15;1.25;;;;;;;6.16;100.00;100639.56;5058787;28;20060;-75
2024/02/28 05:04:17;;;;;;;1.67;0.85;;;;;;;6.20;100.00;100644.66;5075031;28;20032;-76
2024/02/28 05:06:43;;;;;;;4.60;0.90;;;;;;;6.27;100.00;100653.72;5058864;28;20032;-75
2024/02/28 05:09:09;;;;;;;3.50;1.00;;;;;;;6.29;100.00;100644.56;5058580;28;20020;-75
2024/02/28 05:11:35;;;;;;;4.97;1.27;;;;;;;6.33;100.00;100653.97;5058942;28;20028;-76
2024/02/28 05:14:00;;;;;;;2.13;1.10;;;;;;;6.35;100.00;100654.66;5025608;28;20043;-75
2024/02/28 05:16:26;;;;;;;0.40;0.40;;;;;;;6.39;100.00;100647.19;5041810;28;20134;-75
2024/02/28 05:18:51;;;;;;;1.00;0.98;;;;;;;6.39;100.00;100633.81;5058635;28;20032;-75
2024/02/28 05:21:17;;;;;;;0.60;0.60;;;;;;;6.43;100.00;100629.88;5041976;28;20108;-75
2024/02/28 05:23:43;;;;;;;5.78;1.67;;;;;;;6.44;100.00;100617.34;5058256;28;20028;-75
2024/02/28 05:26:08;;;;;;;0.60;0.60;;;;;;;6.46;100.00;100615.38;5058446;28;20077;-76
2024/02/28 05:28:34;;;;;;;0.88;0.80;;;;;;;6.45;100.00;100613.69;5041992;28;20020;-76
2024/02/28 05:31:24;;;;;;;3.13;1.25;;;;;;;6.47;100.00;100612.53;5040597;28;20420;-75
2024/02/28 05:33:54;;;;;;;0.77;0.73;;;;;;;6.49;100.00;100613.22;5052888;28;20134;-76
2024/02/28 05:36:20;;;;;;;4.20;1.30;;;;;;;6.50;100.00;100614.06;5058012;28;20117;-76
2024/02/28 05:38:47;;;;;;;2.28;1.13;;;;;;;6.51;100.00;100607.72;5058301;28;20032;-76
2024/02/28 05:41:13;;;;;;;1.55;0.80;;;;;;;6.50;100.00;100596.19;5041668;28;20356;-75
2024/02/28 05:43:40;;;;;;;0.50;0.50;;;;;;;6.50;100.00;100590.84;5041727;28;20476;-75
2024/02/28 05:46:06;;;;;;;1.60;0.80;;;;;;;6.54;100.00;100591.41;5074282;28;20056;-76
2024/02/28 05:48:32;;;;;;;3.10;0.80;;;;;;;6.52;100.00;100580.84;5074592;28;20079;-75
2024/02/28 05:50:58;;;;;;;1.30;0.90;;;;;;;6.54;100.00;100570.03;5041962;28;20040;-75
2024/02/28 05:53:26;;;;;;;1.05;0.95;;;;;;;6.53;100.00;100563.00;5041615;28;20040;-75
2024/02/28 05:55:56;;;;;;;1.38;0.90;;;;;;;6.58;100.00;100556.19;5058239;28;20086;-75
2024/02/28 05:58:23;;;;;;;2.17;1.10;;;;;;;6.57;100.00;100549.19;5042780;28;20430;-75
2024/02/28 06:00:49;;;;;;;4.38;1.20;;;;;;;6.62;100.00;100558.56;5057723;28;20435;-76
2024/02/28 06:03:14;;;;;;;1.20;1.00;;;;;;;6.60;100.00;100556.88;5074259;28;20024;-75
2024/02/28 06:05:40;;;;;;;6.10;1.02;;;;;;;6.63;100.00;100541.53;5041167;28;20416;-76
2024/02/28 06:08:06;;;;;;;0.85;0.85;;;;;;;6.65;100.00;100545.75;5041091;28;20036;-75
2024/02/28 06:10:32;;;;;;;0.50;0.50;;;;;;;6.69;100.00;100548.94;5057302;28;20033;-75
2024/02/28 06:12:57;;;;;;;0.60;0.60;;;;;;;6.72;100.00;100541.47;5058381;28;20112;-75
2024/02/28 06:15:23;;;;;;;1.20;0.90;;;;;;;6.77;100.00;100524.94;5075215;28;20378;-75
2024/02/28 06:17:49;;;;;;;4.60;0.63;;;;;;;6.80;100.00;100522.81;5057434;28;20111;-75
2024/02/28 06:20:14;;;;;;;0.85;0.70;;;;;;;6.86;100.00;100528.53;5040728;28;20043;-75
2024/02/28 06:22:40;;;;;;;0.68;0.68;;;;;;;6.91;100.00;100511.00;5057409;28;20036;-75
2024/02/28 06:25:13;;;;;;;0.57;0.57;;;;;;;6.97;100.00;100507.69;5057310;28;20036;-75
2024/02/28 06:27:39;;;;;;;0.40;0.40;;;;;;;7.02;100.00;100493.84;5058119;28;20486;-75
2024/02/28 06:30:07;;;;;;;0.88;0.80;;;;;;;7.06;100.00;100492.53;5040601;28;20021;-75
2024/02/28 06:32:32;;;;;;;0.60;0.60;;;;;;;7.10;100.00;100506.44;5056930;28;20494;-75
2024/02/28 06:34:58;;;;;;;1.00;0.90;;;;;;;7.17;100.00;100507.44;5040307;28;20064;-75
2024/02/28 06:37:23;;;;;;;0.75;0.65;;;;;;;7.22;100.00;100518.50;5056838;28;20032;-75
2024/02/28 06:39:49;;;;;;;0.60;0.60;;;;;;;7.27;100.00;100527.72;5041043;28;20036;-75
2024/02/28 06:42:15;;;;;;;0.70;0.70;;;;;;;7.26;100.00;100519.88;5040162;28;20032;-75
2024/02/28 06:44:41;;;;;;;0.63;0.63;;;;;;;7.38;100.00;100531.13;5056570;28;20024;-75
2024/02/28 06:47:08;;;;;;;0.90;0.50;;;;;;;7.39;100.00;100517.59;5073139;28;20054;-76
2024/02/28 06:49:34;;;;;;;0.90;0.68;;;;;;;7.49;100.00;100520.16;5040291;28;20020;-75
2024/02/28 06:52:01;;;;;;;1.52;0.70;;;;;;;7.55;100.00;100524.00;5040255;28;20032;-75
2024/02/28 06:54:27;;;;;;;0.50;0.50;;;;;;;7.56;100.00;100496.25;5040427;28;20043;-75
2024/02/28 06:56:55;;;;;;;0.50;0.50;;;;;;;7.60;100.00;100497.59;5072889;28;20375;-75
2024/02/28 06:59:20;;;;;;;0.50;0.50;;;;;;;7.62;100.00;100496.44;5040064;28;20029;-75
2024/02/28 07:01:46;;;;;;;0.50;0.50;;;;;;;7.66;100.00;100504.97;5040045;28;20029;-75
2024/02/28 07:04:12;;;;;;;0.40;0.40;;;;;;;7.67;100.00;100507.50;5039953;28;20028;-75
2024/02/28 07:06:37;;;;;;;0.60;0.60;;;;;;;7.69;100.00;100513.50;5040063;28;20033;-76
2024/02/28 07:09:03;;;;;;;0.55;0.55;;;;;;;7.72;100.00;100517.69;5040429;28;20028;-75
2024/02/28 07:11:29;;;;;;;0.50;0.50;;;;;;;7.77;100.00;100528.75;5039957;28;20554;-75
2024/02/28 07:13:57;;;;;;;0.60;0.60;;;;;;;7.79;100.00;100525.91;5039928;28;20033;-75
2024/02/28 07:16:23;;;;;;;0.40;0.40;;;;;;;7.80;100.00;100515.03;5073240;28;20024;-75
2024/02/28 07:18:49;;;;;;;1.30;0.80;;;;;;;7.86;100.00;100511.72;5040359;28;20110;-75
2024/02/28 07:21:14;;;;;;;0.60;0.60;;;;;;;7.90;100.00;100507.69;5056140;28;20348;-75
2024/02/28 07:23:40;;;;;;;0.60;0.57;;;;;;;7.94;100.00;100497.53;5039755;28;20035;-75
2024/02/28 07:26:07;;;;;;;0.93;0.80;;;;;;;7.97;100.00;100504.38;5056082;28;20024;-76
2024/02/28 07:28:33;;;;;;;0.57;0.57;;;;;;;8.07;100.00;100502.38;5056194;28;20532;-76
2024/02/28 07:30:58;;;;;;;0.43;0.43;;;;;;;8.13;100.00;100507.06;5056065;28;20112;-75
2024/02/28 07:33:24;;;;;;;0.50;0.50;;;;;;;8.14;100.00;100503.38;5039591;28;20033;-76
2024/02/28 07:35:52;;;;;;;1.27;0.70;;;;;;;8.20;100.00;100501.88;5055644;28;20031;-76
2024/02/28 07:38:20;;;;;;;0.50;0.50;;;;;;;8.22;100.00;100492.66;5039601;28;20079;-75
2024/02/28 07:40:47;;;;;;;0.57;0.57;;;;;;;8.27;100.00;100498.38;5055848;28;20029;-75
2024/02/28 07:43:13;;;;;;;0.45;0.45;;;;;;;8.32;100.00;100501.38;5039517;28;20085;-75
2024/02/28 07:45:39;;;;;;;0.40;0.40;;;;;;;8.35;100.00;100498.38;5039483;28;20028;-75
2024/02/28 07:48:05;;;;;;;0.60;0.60;;;;;;;8.37;100.00;100507.06;5039530;28;20336;-75
2024/02/28 07:50:31;;;;;;;0.50;0.50;;;;;;;8.40;100.00;100510.47;5055596;28;20419;-75
2024/02/28 07:52:57;;;;;;;0.40;0.40;;;;;;;8.42;100.00;100511.16;5039208;28;20112;-75
2024/02/28 07:55:23;;;;;;;0.63;0.63;;;;;;;8.47;100.00;100511.47;5038526;28;20068;-76
2024/02/28 07:57:53;;;;;;;0.70;0.70;;;;;;;8.49;100.00;100512.13;5071971;28;20062;-76
2024/02/28 08:00:19;;;;;;;0.88;0.88;;;;;;;8.53;100.00;100508.13;5039301;28;20032;-76
2024/02/28 08:02:46;;;;;;;0.70;0.60;;;;;;;8.60;100.00;100514.47;5055759;28;20370;-76
2024/02/28 08:05:13;;;;;;;0.70;0.70;;;;;;;8.69;100.00;100526.84;5039162;28;20036;-76
2024/02/28 08:07:39;;;;;;;0.65;0.65;;;;;;;8.77;100.00;100526.00;5055753;28;20149;-76
2024/02/28 08:10:05;;;;;;;0.90;0.80;;;;;;;8.87;100.00;100517.78;5038847;28;20119;-76
2024/02/28 08:12:32;;;;;;;0.50;0.50;;;;;;;8.96;100.00;100517.59;5055518;28;20028;-76
2024/02/28 08:14:58;;;;;;;0.88;0.65;;;;;;;9.05;100.00;100513.06;5072003;28;20017;-76
2024/02/28 08:17:23;;;;;;;0.63;0.63;;;;;;;9.14;100.00;100512.00;5055528;28;20487;-76
2024/02/28 08:19:49;;;;;;;0.85;0.70;;;;;;;9.24;100.00;100507.28;5055473;28;20032;-76
2024/02/28 08:22:15;;;;;;;0.65;0.65;;;;;;;9.34;100.00;100509.78;5038618;28;20035;-75
2024/02/28 08:24:40;;;;;;;0.40;0.40;;;;;;;9.49;100.00;100503.66;5055447;28;20032;-76
2024/02/28 08:27:06;;;;;;;0.68;0.68;;;;;;;9.59;100.00;100509.66;5038914;28;20135;-76
2024/02/28 08:29:32;;;;;;;0.55;0.55;;;;;;;9.73;100.00;100508.91;5038555;28;20025;-76
2024/02/28 08:31:59;;;;;;;0.30;0.30;;;;;;;9.88;100.00;100498.25;5055648;28;20505;-76
2024/02/28 08:34:24;;;;;;;0.40;0.40;;;;;;;9.97;100.00;100497.16;5072109;28;20036;-76
2024/02/28 08:36:51;;;;;;;0.47;0.45;;;;;;;10.06;100.00;100496.13;5039109;28;20394;-76
2024/02/28 08:39:17;;;;;;;0.40;0.40;;;;;;;10.11;100.00;100491.03;5039001;28;20060;-76
2024/02/28 08:41:43;;;;;;;0.40;0.40;;;;;;;10.15;100.00;100493.38;5038784;28;20040;-76
2024/02/28 08:44:09;;;;;;;0.40;0.40;;;;;;;10.15;100.00;100493.38;5055204;28;20093;-77
2024/02/28 08:46:34;;;;;;;0.52;0.52;;;;;;;10.19;100.00;100500.91;5038772;28;20532;-76
2024/02/28 08:49:00;;;;;;;1.50;0.50;;;;;;;10.21;100.00;100487.25;5054671;28;20028;-76
2024/02/28 08:51:26;;;;;;;0.65;0.60;;;;;;;10.23;100.00;100488.75;5055048;28;20085;-76
2024/02/28 08:53:53;;;;;;;0.55;0.55;;;;;;;10.28;100.00;100499.00;5056027;28;20021;-76
2024/02/28 08:56:19;;;;;;;2.33;0.60;;;;;;;10.24;100.00;100492.25;5039000;28;20040;-76
2024/02/28 08:58:45;;;;;;;1.05;0.70;;;;;;;10.20;100.00;100493.66;5038758;28;20037;-76
2024/02/28 09:01:15;;;;;;;1.02;0.73;;;;;;;10.17;100.00;100500.22;5038661;28;20443;-76
2024/02/28 09:03:40;;;;;;;0.47;0.47;;;;;;;10.15;100.00;100499.56;5055518;28;20133;-76
2024/02/28 09:06:06;;;;;;;0.80;0.80;;;;;;;10.18;100.00;100498.38;5040785;28;20122;-76
2024/02/28 09:08:32;;;;;;;0.50;0.50;;;;;;;10.18;100.00;100501.06;5042172;28;20064;-76
2024/02/28 09:10:58;;;;;;;0.40;0.40;;;;;;;10.17;100.00;100496.72;5042243;28;20055;-76
2024/02/28 09:13:24;;;;;;;0.45;0.45;;;;;;;10.18;100.00;100491.13;5075258;28;20032;-76
2024/02/28 09:15:49;;;;;;;0.70;0.70;;;;;;;10.24;100.00;100493.13;5059281;28;20039;-76
2024/02/28 09:18:16;;;;;;;0.63;0.50;;;;;;;10.32;100.00;100494.94;5042083;28;20028;-77
2024/02/28 09:20:42;;;;;;;0.50;0.50;;;;;;;10.42;100.00;100492.00;5058320;28;20462;-76
2024/02/28 09:23:07;;;;;;;0.40;0.40;;;;;;;10.41;100.00;100501.91;5042150;28;20043;-76
2024/02/28 09:25:35;;;;;;;0.70;0.70;;;;;;;10.40;100.00;100500.25;5076182;28;20027;-76
2024/02/28 09:28:02;;;;;;;0.55;0.50;;;;;;;10.39;100.00;100489.66;5058253;28;20025;-76
2024/02/28 09:30:27;;;;;;;3.10;0.73;;;;;;;10.39;100.00;100493.19;5041752;28;20029;-76
2024/02/28 09:32:53;;;;;;;0.70;0.60;;;;;;;10.43;100.00;100507.13;5058222;28;20029;-76
2024/02/28 09:35:19;;;;;;;0.40;0.40;;;;;;;10.47;100.00;100492.28;5041685;28;20063;-76
2024/02/28 09:37:45;;;;;;;0.57;0.40;;;;;;;10.51;100.00;100494.44;5058105;28;20035;-76
2024/02/28 09:40:11;;;;;;;0.60;0.60;;;;;;;10.48;100.00;100492.13;5057809;28;20025;-76
2024/02/28 09:42:37;;;;;;;0.60;0.60;;;;;;;10.63;100.00;100492.13;5057963;28;20048;-76
2024/02/28 09:45:04;;;;;;;0.52;0.52;;;;;;;10.62;100.00;100489.66;5041586;28;20055;-76
2024/02/28 09:47:30;;;;;;;0.50;0.50;;;;;;;10.64;100.00;100484.91;5058018;28;20052;-76
2024/02/28 09:49:58;;;;;;;0.50;0.50;;;;;;;10.65;100.00;100487.41;5058128;28;20036;-76
2024/02/28 09:52:24;;;;;;;0.50;0.50;;;;;;;10.66;100.00;100483.69;5074139;28;20414;-76
2024/02/28 09:54:50;;;;;;;2.38;0.80;;;;;;;10.68;100.00;100483.53;5041395;28;20451;-76
2024/02/28 09:57:16;;;;;;;0.65;0.50;;;;;;;10.68;100.00;100478.97;5041374;28;20055;-76
2024/02/28 09:59:42;;;;;;;0.88;0.88;;;;;;;10.70;100.00;100489.56;5041281;28;20036;-76
2024/02/28 10:02:10;;;;;;;1.55;0.80;;;;;;;10.68;100.00;100472.75;5041525;28;20366;-76
2024/02/28 10:04:36;;;;;;;0.50;0.50;;;;;;;10.68;100.00;100475.47;5075417;28;20021;-76
2024/02/28 10:07:15;;;;;;;0.65;0.65;;;;;;;10.60;100.00;100467.47;5073981;28;20020;-76
2024/02/28 10:09:41;;;;;;;5.20;1.83;;;;;;;10.60;100.00;100471.00;5074877;28;20047;-76
2024/02/28 10:12:07;;;;;;;0.55;0.50;;;;;;;10.62;100.00;100465.44;5041014;28;20059;-76
2024/02/28 10:14:33;;;;;;;0.40;0.40;;;;;;;10.64;100.00;100461.56;5040970;28;20064;-76
2024/02/28 10:16:59;;;;;;;0.90;0.65;;;;;;;10.67;100.00;100461.19;5040304;28;20028;-76
2024/02/28 10:19:24;;;;;;;1.85;0.70;;;;;;;10.68;100.00;100464.69;5040862;28;20040;-76
2024/02/28 10:21:51;;;;;;;2.55;0.60;;;;;;;10.72;100.00;100461.47;5074049;28;20362;-76
2024/02/28 10:24:17;;;;;;;0.70;0.47;;;;;;;10.76;100.00;100459.22;5040925;28;20085;-76
2024/02/28 10:26:55;;;;;;;0.50;0.50;;;;;;;10.74;100.00;100459.44;5040754;28;20028;-76
2024/02/28 10:29:22;;;;;;;0.57;0.57;;;;;;;10.78;100.00;100465.28;5058584;28;20029;-76
2024/02/28 10:31:47;;;;;;;0.70;0.70;;;;;;;10.82;100.00;100458.50;5057178;28;20048;-76
2024/02/28 10:34:17;;;;;;;0.50;0.50;;;;;;;10.85;100.00;100451.91;5041453;28;20056;-76
2024/02/28 10:36:45;;;;;;;1.45;0.90;;;;;;;10.90;100.00;100455.72;5056706;28;20135;-75
2024/02/28 10:39:11;;;;;;;0.50;0.50;;;;;;;10.92;100.00;100447.47;5056843;28;20037;-76
2024/02/28 10:41:41;;;;;;;0.60;0.60;;;;;;;10.91;100.00;100445.81;5073518;28;20036;-76
2024/02/28 10:44:09;;;;;;;0.63;0.63;;;;;;;10.91;100.00;100449.31;5056637;28;20428;-76
2024/02/28 10:46:37;;;;;;;1.63;0.80;;;;;;;10.97;100.00;100442.34;5057049;28;20020;-76
2024/02/28 10:49:06;;;;;;;0.60;0.60;;;;;;;11.00;100.00;100432.06;5056497;28;20020;-76
2024/02/28 10:51:36;;;;;;;0.60;0.60;;;;;;;10.98;100.00;100428.75;5073368;28;20409;-76
2024/02/28 10:54:13;;;;;;;4.28;0.82;;;;;;;10.95;100.00;100423.69;5056633;28;20175;-76
2024/02/28 10:56:42;;;;;;;0.98;0.73;;;;;;;10.98;100.00;100422.50;5023516;28;20071;-76
2024/02/28 10:59:09;;;;;;;11.13;1.15;;;;;;;11.04;100.00;100419.06;5039687;28;20036;-76
2024/02/28 11:01:43;;;;;;;0.57;0.55;;;;;;;11.11;100.00;100414.59;5056619;28;20044;-76
2024/02/28 11:04:10;;;;;;;1.42;1.05;;;;;;;11.21;100.00;100420.53;5056428;28;20024;-76
2024/02/28 11:06:50;;;;;;;1.42;1.00;;;;;;;11.32;100.00;100416.50;5056416;28;20443;-76
2024/02/28 11:09:27;;;;;;;1.05;0.70;;;;;;;11.37;100.00;100415.94;5056866;28;20032;-76
2024/02/28 11:11:53;;;;;;;0.82;0.80;;;;;;;11.43;100.00;100409.78;5073017;28;20524;-76
2024/02/28 11:14:22;;;;;;;1.00;0.90;;;;;;;11.40;100.00;100413.69;5039971;28;20040;-76
2024/02/28 11:16:49;;;;;;;0.43;0.43;;;;;;;11.41;100.00;100407.31;5072946;28;20103;-76